Time;durP1;ratioP1;P1;durP2;ratioP2;P2;SDS_P1;SDS_P2;PMS_P1;PMS_P2;Temp;Humidity;BMP_temperature;BMP_pressure;BME280_temperature;BME280_humidity;BME280_pressure;Samples;Min_cycle;Max_cycle;Signal;HPM_P1;HPM_P2
2022/03/08 00:02:03;;;;;;;50.60;24.60;;;;;;;-0.94;87.20;97543.03;10287021;28;19913;-61
2022/03/08 00:07:03;;;;;;;54.58;27.23;;;;;;;-0.80;87.87;97563.97;10290034;28;20121;-61
2022/03/08 00:12:02;;;;;;;54.75;27.52;;;;;;;-0.92;87.70;97535.47;10290684;28;20128;-61
2022/03/08 00:17:03;;;;;;;53.20;26.48;;;;;;;-0.79;87.52;97542.78;10298962;28;20061;-61
2022/03/08 00:22:02;;;;;;;326.67;119.18;;;;;;;-0.52;87.46;97542.16;10298191;28;20088;-61
2022/03/08 00:27:01;;;;;;;54.72;28.25;;;;;;;-0.50;86.82;97521.00;10298307;28;20088;-61
2022/03/08 00:32:00;;;;;;;452.67;138.98;;;;;;;-0.87;86.94;97465.19;10294323;28;20038;-61
2022/03/08 00:36:59;;;;;;;315.58;107.30;;;;;;;-0.34;86.34;97531.78;10297765;28;20061;-61
2022/03/08 00:41:58;;;;;;;625.08;247.48;;;;;;;-0.73;86.61;97461.50;10297630;28;20034;-61
2022/03/08 00:46:57;;;;;;;175.48;67.53;;;;;;;-0.26;86.66;97550.78;10297302;28;20022;-61
2022/03/08 00:51:56;;;;;;;400.13;141.77;;;;;;;-0.41;86.58;97531.56;10297329;28;20040;-61
2022/03/08 00:56:55;;;;;;;437.20;174.63;;;;;;;-0.37;87.02;97553.81;10296764;28;20061;-61
2022/03/08 01:01:54;;;;;;;;;;;;;;;-0.44;86.21;97549.28;10294538;28;20081;-61
2022/03/08 01:06:55;;;;;;;55.13;29.33;;;;;;;-1.08;86.53;97485.59;10295321;28;19992;-61
2022/03/08 01:11:54;;;;;;;51.40;26.23;;;;;;;-1.07;86.72;97540.78;10297294;28;20435;-61
2022/03/08 01:16:53;;;;;;;;;;;;;;;-0.98;87.36;97550.50;10296791;28;20475;-61
2022/03/08 01:21:52;;;;;;;47.70;25.60;;;;;;;-0.83;87.44;97543.50;10296466;28;20379;-61
2022/03/08 01:26:51;;;;;;;50.40;26.38;;;;;;;-1.28;87.11;97484.78;10294786;28;20435;-61
2022/03/08 01:31:50;;;;;;;98.38;52.10;;;;;;;-0.89;86.82;97536.44;10292668;28;20046;-61
2022/03/08 01:36:49;;;;;;;83.55;44.28;;;;;;;-0.78;87.25;97530.94;10295733;28;20061;-61
2022/03/08 01:41:48;;;;;;;70.40;38.00;;;;;;;-0.55;86.51;97548.00;10295389;28;20069;-61
2022/03/08 01:46:47;;;;;;;66.20;35.22;;;;;;;-0.48;86.09;97549.09;10295833;28;20073;-61
2022/03/08 01:51:46;;;;;;;67.47;36.88;;;;;;;-0.39;86.45;97540.13;10295562;28;20069;-61
2022/03/08 01:56:45;;;;;;;51.80;29.80;;;;;;;-0.32;86.10;97551.44;10294390;28;20033;-61
2022/03/08 02:01:44;;;;;;;81.65;45.35;;;;;;;-0.25;86.25;97539.75;10294865;28;20476;-61
2022/03/08 02:06:46;;;;;;;76.80;42.30;;;;;;;-0.58;85.58;97481.59;10291336;28;20033;-61
2022/03/08 02:11:46;;;;;;;51.83;27.42;;;;;;;-0.41;86.24;97526.44;10294644;28;20073;-61
2022/03/08 02:16:45;;;;;;;;;;;;;;;-0.31;86.13;97542.09;10293538;28;20493;-61
2022/03/08 02:21:44;;;;;;;81.80;43.38;;;;;;;-0.32;86.16;97527.59;10293834;28;20382;-61
2022/03/08 02:26:44;;;;;;;;;;;;;;;-0.31;86.26;97526.81;10294419;28;20073;-61
2022/03/08 02:31:43;;;;;;;77.75;37.25;;;;;;;-0.29;85.47;97545.59;10293604;28;20394;-61
2022/03/08 02:37:07;;;;;;;51.67;26.52;;;;;;;-0.57;86.14;97544.50;10289625;28;20033;-61
2022/03/08 02:42:07;;;;;;;59.10;29.58;;;;;;;-0.53;86.29;97541.28;10293027;28;20069;-61
2022/03/08 02:47:06;;;;;;;76.13;38.65;;;;;;;-0.52;86.16;97548.09;10275688;28;20147;-61
2022/03/08 02:52:05;;;;;;;;;;;;;;;-0.43;85.65;97545.91;10293295;28;20068;-61
2022/03/08 02:57:04;;;;;;;53.53;27.77;;;;;;;-0.54;85.50;97570.09;10292515;28;19916;-61
2022/03/08 03:02:03;;;;;;;55.67;30.73;;;;;;;-0.70;86.64;97563.53;10292900;28;20036;-61
2022/03/08 03:07:03;;;;;;;46.20;25.25;;;;;;;-0.73;86.48;97562.56;10288998;28;20077;-61
2022/03/08 03:12:02;;;;;;;57.05;32.03;;;;;;;-0.81;86.49;97535.09;10292196;28;20516;-61
2022/03/08 03:17:02;;;;;;;52.97;26.75;;;;;;;-0.66;86.19;97554.34;10292784;28;20484;-61
2022/03/08 03:22:01;;;;;;;61.97;30.65;;;;;;;-0.75;86.23;97520.84;10291514;28;20077;-61
2022/03/08 03:26:59;;;;;;;61.28;31.48;;;;;;;-0.44;86.24;97577.31;10291687;28;20061;-61
2022/03/08 03:31:59;;;;;;;59.28;31.42;;;;;;;-0.74;85.71;97517.47;10291837;28;20033;-61
2022/03/08 03:36:58;;;;;;;65.60;35.17;;;;;;;-0.54;85.81;97559.91;10287312;28;20062;-61
2022/03/08 03:41:57;;;;;;;72.05;37.50;;;;;;;-0.65;86.45;97558.63;10291951;28;20034;-61
2022/03/08 03:46:56;;;;;;;72.47;37.00;;;;;;;-0.42;86.25;97580.78;10290254;28;20558;-61
2022/03/08 03:51:55;;;;;;;74.10;40.33;;;;;;;-0.35;86.32;97587.00;10290944;28;20491;-61
2022/03/08 03:56:54;;;;;;;71.45;37.00;;;;;;;-0.61;85.87;97524.81;10291235;28;20508;-61
2022/03/08 04:01:53;;;;;;;81.47;44.53;;;;;;;-0.38;85.99;97587.75;10290628;28;20038;-61
2022/03/08 04:06:53;;;;;;;92.30;46.42;;;;;;;-0.40;86.63;97589.34;10287166;28;20064;-61
2022/03/08 04:11:52;;;;;;;86.32;43.92;;;;;;;-0.40;86.71;97584.25;10290342;28;20061;-61
2022/03/08 04:16:52;;;;;;;93.15;48.47;;;;;;;-0.45;86.32;97580.66;10290295;28;20032;-61
2022/03/08 04:21:51;;;;;;;87.25;48.88;;;;;;;-1.03;86.64;97487.50;10289728;28;20086;-61
2022/03/08 04:26:50;;;;;;;73.38;39.03;;;;;;;-0.56;86.77;97596.34;10290769;28;20034;-61
2022/03/08 04:31:49;;;;;;;83.35;39.67;;;;;;;-0.68;86.98;97589.94;10290418;28;20104;-61
2022/03/08 04:36:48;;;;;;;89.43;44.75;;;;;;;-0.70;86.84;97595.78;10286878;28;20026;-61
2022/03/08 04:41:48;;;;;;;77.28;36.85;;;;;;;-0.86;86.77;97596.84;10290721;28;20030;-61
2022/03/08 04:46:47;;;;;;;90.72;47.42;;;;;;;-1.03;88.04;97574.09;10289691;28;20809;-61
2022/03/08 04:51:46;;;;;;;76.03;40.63;;;;;;;-0.90;87.78;97589.91;10289947;28;20503;-61
2022/03/08 04:56:46;;;;;;;87.93;47.13;;;;;;;-1.05;88.02;97572.28;10290148;28;20030;-61
2022/03/08 05:01:45;;;;;;;89.80;43.08;;;;;;;-0.86;87.53;97594.28;10295877;28;20064;-61
2022/03/08 05:06:44;;;;;;;87.40;44.05;;;;;;;-0.92;87.93;97579.63;10296572;28;20104;-61
2022/03/08 05:11:44;;;;;;;93.20;43.65;;;;;;;-0.93;88.02;97549.91;10293319;28;20033;-61
2022/03/08 05:16:43;;;;;;;110.75;56.28;;;;;;;-0.54;87.78;97605.78;10296234;28;20061;-61
2022/03/08 05:21:42;;;;;;;90.07;44.63;;;;;;;-0.65;87.78;97584.09;10253282;28;20054;-61
2022/03/08 05:26:41;;;;;;;95.75;45.40;;;;;;;-1.01;87.35;97500.31;10296375;28;20375;-61
2022/03/08 05:31:40;;;;;;;93.18;45.53;;;;;;;-0.44;87.21;97582.44;10295332;28;20539;-61
2022/03/08 05:36:39;;;;;;;91.53;44.60;;;;;;;-0.35;87.65;97599.72;10296486;28;20026;-61
2022/03/08 05:41:38;;;;;;;98.32;48.50;;;;;;;-0.93;87.69;97514.25;10295192;28;20033;-61
2022/03/08 05:46:37;;;;;;;96.05;49.65;;;;;;;-0.20;87.98;97612.22;10293230;28;20483;-61
2022/03/08 05:51:36;;;;;;;67.55;34.72;;;;;;;-0.25;87.86;97612.06;10294556;28;20067;-61
2022/03/08 05:56:35;;;;;;;77.75;40.05;;;;;;;-0.33;87.65;97589.59;10294962;28;20018;-61
2022/03/08 06:01:34;;;;;;;58.15;34.47;;;;;;;-0.12;86.78;97620.16;10293416;28;20065;-61
2022/03/08 06:06:33;;;;;;;231.98;123.05;;;;;;;-0.50;86.69;97574.53;10294496;28;20058;-61
2022/03/08 06:11:32;;;;;;;52.40;29.13;;;;;;;-0.40;86.82;97571.50;10290845;28;20069;-61
2022/03/08 06:16:31;;;;;;;53.30;32.00;;;;;;;-0.12;85.94;97626.13;10291476;28;20038;-62
2022/03/08 06:21:30;;;;;;;52.45;29.13;;;;;;;-0.12;85.85;97623.59;10283896;28;20523;-61
2022/03/08 06:26:29;;;;;;;65.43;38.90;;;;;;;-0.71;85.64;97507.44;10293948;28;20105;-62
2022/03/08 06:31:28;;;;;;;44.88;28.15;;;;;;;-0.10;85.51;97619.41;10291027;28;20076;-61
2022/03/08 06:36:27;;;;;;;57.47;35.20;;;;;;;0.24;85.17;97648.75;10291813;28;20050;-61
2022/03/08 06:41:28;;;;;;;49.28;29.90;;;;;;;0.28;84.28;97653.16;10292851;28;20065;-61
2022/03/08 06:46:27;;;;;;;44.97;28.60;;;;;;;-0.13;84.54;97624.41;10250686;28;20069;-61
2022/03/08 06:51:26;;;;;;;46.15;27.65;;;;;;;-0.10;83.84;97649.16;10275477;28;20057;-61
2022/03/08 06:56:25;;;;;;;45.47;27.67;;;;;;;0.02;84.01;97650.50;10292140;28;20076;-61
2022/03/08 07:01:24;;;;;;;49.55;31.20;;;;;;;-0.47;83.83;97581.41;10292956;28;20034;-61
2022/03/08 07:06:23;;;;;;;40.00;25.80;;;;;;;-0.20;83.69;97658.13;10291560;28;20041;-61
2022/03/08 07:11:22;;;;;;;44.47;27.23;;;;;;;-0.28;83.81;97672.25;10291608;28;20061;-61
2022/03/08 07:16:21;;;;;;;41.65;25.92;;;;;;;-0.37;83.82;97671.09;10292509;28;20049;-61
2022/03/08 07:21:20;;;;;;;39.80;25.05;;;;;;;-0.32;84.11;97668.72;10291662;28;20140;-61
2022/03/08 07:26:19;;;;;;;34.15;21.33;;;;;;;-0.40;82.96;97673.47;10291787;28;20034;-62
2022/03/08 07:31:18;;;;;;;42.28;24.60;;;;;;;-0.37;82.84;97658.34;10291367;28;20478;-62
2022/03/08 07:36:18;;;;;;;;;;;;;;;-0.32;82.23;97672.91;10271432;28;20084;-61
2022/03/08 07:41:17;;;;;;;38.93;23.13;;;;;;;-0.69;80.98;97633.22;10291102;28;19956;-61
2022/03/08 07:46:16;;;;;;;39.35;22.73;;;;;;;-0.82;80.51;97647.13;10291329;28;20444;-61
2022/03/08 07:51:15;;;;;;;38.83;24.15;;;;;;;-0.62;79.17;97674.31;10290891;28;20123;-61
2022/03/08 07:56:14;;;;;;;;;;;;;;;-0.58;78.28;97675.28;10290314;28;20069;-61
2022/03/08 08:01:13;;;;;;;42.60;25.35;;;;;;;-0.41;78.02;97643.72;10290611;28;19964;-61
2022/03/08 08:06:12;;;;;;;44.95;26.52;;;;;;;-0.03;76.35;97672.41;10289452;28;20073;-61
2022/03/08 08:11:11;;;;;;;36.22;21.63;;;;;;;0.08;75.11;97666.84;10272087;28;20073;-61
2022/03/08 08:16:10;;;;;;;47.55;27.30;;;;;;;0.18;74.31;97671.50;10290784;28;20036;-61
2022/03/08 08:21:10;;;;;;;41.80;25.33;;;;;;;0.48;73.72;97672.66;10289338;28;20050;-61
2022/03/08 08:26:09;;;;;;;31.65;19.98;;;;;;;0.72;73.10;97656.47;10289001;28;20064;-61
2022/03/08 08:31:08;;;;;;;35.28;20.83;;;;;;;0.74;71.10;97670.19;10290201;28;20069;-61
2022/03/08 08:36:07;;;;;;;;;;;;;;;0.87;70.77;97672.38;10295451;28;20076;-61
2022/03/08 08:41:06;;;;;;;35.05;21.85;;;;;;;1.15;70.13;97665.63;10297629;28;19948;-61
2022/03/08 08:46:05;;;;;;;38.22;25.30;;;;;;;1.41;68.90;97681.00;10297349;28;20033;-61
2022/03/08 08:51:04;;;;;;;42.78;26.02;;;;;;;1.41;68.11;97650.31;10297017;28;20030;-61
2022/03/08 08:56:03;;;;;;;59.83;35.47;;;;;;;1.52;68.35;97631.94;10296863;28;20064;-60
2022/03/08 09:01:02;;;;;;;35.15;21.58;;;;;;;1.90;67.83;97669.81;10297140;28;20057;-61
2022/03/08 09:06:01;;;;;;;33.00;21.25;;;;;;;1.91;66.35;97658.78;10296626;28;20134;-61
2022/03/08 09:11:00;;;;;;;33.33;20.75;;;;;;;1.65;66.07;97640.91;10296374;28;20050;-61
2022/03/08 09:15:59;;;;;;;;;;;;;;;1.68;65.13;97681.06;10296765;28;20065;-60
2022/03/08 09:20:58;;;;;;;38.03;23.98;;;;;;;1.68;65.71;97681.06;10296442;28;19917;-60
2022/03/08 09:25:57;;;;;;;36.38;21.98;;;;;;;1.85;64.93;97679.03;10296004;28;20117;-60
2022/03/08 09:30:56;;;;;;;39.97;24.50;;;;;;;1.87;64.37;97679.97;10296035;28;20038;-60
2022/03/08 09:35:56;;;;;;;33.97;22.75;;;;;;;1.37;63.22;97588.00;10295433;28;20397;-60
2022/03/08 09:40:55;;;;;;;30.35;19.88;;;;;;;1.83;64.56;97684.09;10295527;28;20061;-60
2022/03/08 09:45:54;;;;;;;30.75;19.60;;;;;;;2.13;63.82;97678.22;10276567;28;20073;-60
2022/03/08 09:50:53;;;;;;;33.65;23.05;;;;;;;2.34;62.53;97694.22;10295956;28;20470;-60
2022/03/08 09:55:57;;;;;;;35.22;21.67;;;;;;;2.46;61.86;97696.28;10294762;28;20065;-60
2022/03/08 10:00:59;;;;;;;37.90;23.55;;;;;;;2.61;62.37;97666.84;10295341;28;20498;-60
2022/03/08 10:05:58;;;;;;;30.20;18.83;;;;;;;2.92;61.07;97673.69;10294509;28;20456;-60
2022/03/08 10:11:17;;;;;;;33.70;22.63;;;;;;;3.27;61.23;97684.91;10293375;28;20567;-60
2022/03/08 10:16:29;;;;;;;33.87;22.60;;;;;;;3.37;60.80;97699.69;10294314;28;20500;-60
2022/03/08 10:21:34;;;;;;;30.73;21.35;;;;;;;3.32;59.29;97693.56;10293622;28;20088;-60
2022/03/08 10:26:49;;;;;;;37.55;22.20;;;;;;;3.17;59.42;97690.63;10293295;28;20444;-60
2022/03/08 10:31:49;;;;;;;30.58;20.35;;;;;;;3.04;59.78;97688.53;10293441;28;20065;-60
2022/03/08 10:37:12;;;;;;;33.28;22.48;;;;;;;2.92;59.32;97700.19;10293844;28;20080;-60
2022/03/08 10:42:18;;;;;;;31.45;20.85;;;;;;;2.86;59.03;97694.00;10293391;28;20366;-60
2022/03/08 10:47:17;;;;;;;31.73;21.05;;;;;;;2.71;59.03;97679.06;10292509;28;20443;-60
2022/03/08 10:52:16;;;;;;;32.97;21.90;;;;;;;2.48;59.75;97697.19;10292912;28;20092;-60
2022/03/08 10:57:15;;;;;;;34.40;21.98;;;;;;;2.25;60.07;97699.06;10292328;28;20029;-60
2022/03/08 11:02:22;;;;;;;33.05;20.20;;;;;;;1.88;61.40;97694.47;10292352;28;20463;-60
2022/03/08 11:07:21;;;;;;;37.92;24.20;;;;;;;1.54;62.82;97698.50;10292636;28;20069;-60
2022/03/08 11:12:21;;;;;;;36.75;23.95;;;;;;;1.56;64.20;97713.91;10291944;28;20099;-60
2022/03/08 11:17:23;;;;;;;34.00;21.90;;;;;;;1.39;64.20;97687.75;10292099;28;20058;-60
2022/03/08 11:22:23;;;;;;;36.63;23.13;;;;;;;1.40;64.27;97698.03;10291270;28;20519;-60
2022/03/08 11:27:22;;;;;;;36.75;23.20;;;;;;;1.35;64.95;97696.16;10291521;28;20492;-60
2022/03/08 11:32:33;;;;;;;39.80;24.25;;;;;;;1.05;64.62;97617.59;10291580;28;20093;-60
2022/03/08 11:37:35;;;;;;;31.98;20.08;;;;;;;1.67;64.08;97700.66;10291342;28;20069;-60
2022/03/08 11:42:37;;;;;;;43.42;26.13;;;;;;;1.64;63.17;97700.53;10291904;28;20506;-60
2022/03/08 11:47:41;;;;;;;32.60;20.42;;;;;;;1.98;63.44;97696.53;10290824;28;20061;-60
2022/03/08 11:52:40;;;;;;;50.92;30.67;;;;;;;2.15;62.47;97695.34;10290998;28;20069;-61
2022/03/08 11:57:49;;;;;;;59.42;36.92;;;;;;;2.56;61.08;97682.94;10291122;28;20029;-60
2022/03/08 12:02:51;;;;;;;28.73;18.65;;;;;;;2.75;60.37;97686.03;10290554;28;20454;-60
2022/03/08 12:07:50;;;;;;;36.60;23.88;;;;;;;2.92;59.26;97683.94;10289575;28;20077;-60
2022/03/08 12:12:53;;;;;;;36.28;23.92;;;;;;;2.95;57.27;97691.69;10290896;28;20036;-60
2022/03/08 12:18:19;;;;;;;38.47;26.65;;;;;;;2.84;57.71;97686.28;10290084;28;20068;-61
2022/03/08 12:23:21;;;;;;;34.92;24.35;;;;;;;2.69;57.70;97684.16;10290207;28;20515;-60
2022/03/08 12:29:13;;;;;;;36.90;24.02;;;;;;;2.65;57.72;97681.44;10290465;28;20062;-60
2022/03/08 12:34:11;;;;;;;50.65;31.27;;;;;;;2.43;56.55;97668.03;10247165;28;20507;-60
2022/03/08 12:39:49;;;;;;;34.17;22.92;;;;;;;2.12;57.06;97664.53;10289811;28;20403;-60
2022/03/08 12:45:03;;;;;;;98.38;58.60;;;;;;;2.18;59.36;97666.41;10289894;28;20069;-61
2022/03/08 12:50:13;;;;;;;226.32;119.28;;;;;;;2.49;60.15;97685.25;10290156;28;20060;-61
2022/03/08 12:55:19;;;;;;;98.93;54.72;;;;;;;2.52;60.67;97678.53;10292065;28;20471;-60
2022/03/08 13:00:42;;;;;;;46.90;29.80;;;;;;;2.63;59.27;97693.34;10289259;28;20506;-60
2022/03/08 13:05:47;;;;;;;32.90;20.52;;;;;;;2.56;56.17;97695.75;10306383;28;20061;-61
2022/03/08 13:10:49;;;;;;;89.32;62.20;;;;;;;2.35;58.07;97692.56;10329742;28;20072;-60
2022/03/08 13:15:48;;;;;;;31.25;19.95;;;;;;;2.02;56.41;97688.13;10329624;28;20068;-60
2022/03/08 13:20:52;;;;;;;38.80;24.50;;;;;;;1.66;58.28;97683.56;10318600;28;20077;-60
2022/03/08 13:25:58;;;;;;;79.90;43.38;;;;;;;2.02;59.58;97689.78;10296584;28;20076;-61
2022/03/08 13:31:01;;;;;;;35.40;21.17;;;;;;;2.29;57.59;97682.13;10296144;28;20501;-61
2022/03/08 13:36:06;;;;;;;45.35;29.05;;;;;;;2.30;57.75;97615.59;10296143;28;20058;-61
2022/03/08 13:41:11;;;;;;;39.90;25.75;;;;;;;2.91;56.93;97685.63;10296747;28;20073;-60
2022/03/08 13:46:20;;;;;;;36.53;22.70;;;;;;;3.09;55.93;97689.53;10295286;28;20062;-60
2022/03/08 13:51:25;;;;;;;46.58;27.70;;;;;;;3.20;56.31;97695.81;10295302;28;20065;-61
2022/03/08 13:56:25;;;;;;;49.63;30.67;;;;;;;3.29;55.21;97683.25;10296130;28;20089;-61
2022/03/08 14:01:26;;;;;;;35.75;24.40;;;;;;;3.18;55.89;97680.38;10294772;28;20075;-61
2022/03/08 14:06:38;;;;;;;57.47;34.92;;;;;;;3.26;55.75;97683.16;10295071;28;20069;-61
2022/03/08 14:11:37;;;;;;;180.73;86.82;;;;;;;3.10;54.60;97686.16;10294708;28;20064;-60
2022/03/08 14:16:44;;;;;;;272.73;99.03;;;;;;;2.76;54.46;97680.94;10294366;28;20527;-60
2022/03/08 14:21:45;;;;;;;402.73;151.27;;;;;;;2.47;55.74;97669.84;10293400;28;20100;-60
2022/03/08 14:27:07;;;;;;;99.55;52.40;;;;;;;2.35;55.91;97679.75;10294345;28;20425;-60
2022/03/08 14:32:09;;;;;;;176.55;90.13;;;;;;;1.94;56.67;97681.88;10293163;28;20065;-60
2022/03/08 14:37:12;;;;;;;44.95;28.48;;;;;;;1.08;57.34;97584.47;10293848;28;20527;-60
2022/03/08 14:42:15;;;;;;;78.55;46.03;;;;;;;1.50;57.79;97677.06;10293179;28;20471;-60
2022/03/08 14:47:18;;;;;;;56.50;33.13;;;;;;;1.52;59.42;97685.66;10293844;28;20065;-60
2022/03/08 14:52:29;;;;;;;36.90;22.65;;;;;;;1.43;57.74;97692.16;10292998;28;20079;-60
2022/03/08 14:57:28;;;;;;;48.05;30.77;;;;;;;1.15;58.24;97683.53;10292361;28;20068;-60
2022/03/08 15:02:27;;;;;;;136.15;72.10;;;;;;;0.95;59.18;97694.75;10291806;28;20046;-60
2022/03/08 15:07:28;;;;;;;107.28;54.92;;;;;;;0.92;59.28;97689.53;10292153;28;20137;-60
2022/03/08 15:12:27;;;;;;;79.78;45.58;;;;;;;0.41;59.78;97634.94;10291465;28;20479;-60
2022/03/08 15:17:26;;;;;;;113.00;63.72;;;;;;;0.68;59.64;97692.94;10291889;28;20054;-60
2022/03/08 15:22:25;;;;;;;297.88;113.95;;;;;;;0.58;60.09;97694.28;10291338;28;20088;-60
2022/03/08 15:27:24;;;;;;;179.93;90.60;;;;;;;0.49;60.89;97693.94;10291650;28;20037;-60
2022/03/08 15:32:23;;;;;;;519.88;174.45;;;;;;;0.43;60.99;97696.28;10291901;28;20072;-60
2022/03/08 15:37:22;;;;;;;611.92;225.68;;;;;;;0.49;60.92;97704.16;10289872;28;20522;-60
2022/03/08 15:42:21;;;;;;;253.00;91.72;;;;;;;0.51;61.45;97704.22;10290407;28;20519;-60
2022/03/08 15:47:21;;;;;;;121.20;52.50;;;;;;;0.59;61.59;97719.03;10290546;28;20507;-60
2022/03/08 15:52:20;;;;;;;;;;;;;;;0.67;61.03;97716.75;10288806;28;20065;-60
2022/03/08 15:57:19;;;;;;;70.07;40.97;;;;;;;0.38;61.04;97679.91;10290935;28;19963;-60
2022/03/08 16:02:18;;;;;;;55.17;33.58;;;;;;;0.55;60.80;97719.72;10290113;28;20464;-60
2022/03/08 16:07:17;;;;;;;62.05;37.90;;;;;;;0.52;60.79;97721.25;10288487;28;20086;-61
2022/03/08 16:12:16;;;;;;;237.25;105.18;;;;;;;0.58;61.67;97724.06;10290726;28;20480;-61
2022/03/08 16:17:15;;;;;;;70.45;42.30;;;;;;;0.64;61.59;97727.72;10290165;28;20558;-61
2022/03/08 16:22:14;;;;;;;60.83;33.78;;;;;;;0.61;60.85;97727.56;10290345;28;20149;-61
2022/03/08 16:27:13;;;;;;;58.03;35.65;;;;;;;0.63;61.70;97737.88;10290484;28;20080;-61
2022/03/08 16:32:12;;;;;;;64.70;34.63;;;;;;;0.54;60.93;97747.72;10290197;28;20076;-61
2022/03/08 16:37:11;;;;;;;55.65;38.13;;;;;;;0.51;62.10;97743.38;10290623;28;20061;-61
2022/03/08 16:42:14;;;;;;;74.70;47.78;;;;;;;0.43;63.25;97750.75;10289977;28;20068;-61
2022/03/08 16:47:13;;;;;;;81.07;49.83;;;;;;;0.46;64.35;97750.00;10289597;28;20057;-61
2022/03/08 16:52:12;;;;;;;57.67;35.85;;;;;;;0.50;64.96;97761.19;10289005;28;20029;-61
2022/03/08 16:57:11;;;;;;;54.47;32.13;;;;;;;0.34;65.25;97765.72;10295248;28;20113;-61
2022/03/08 17:02:12;;;;;;;107.45;64.80;;;;;;;0.15;65.05;97738.59;10296760;28;20037;-60
2022/03/08 17:07:10;;;;;;;67.43;39.05;;;;;;;0.38;64.90;97776.91;10295592;28;20066;-60
2022/03/08 17:12:10;;;;;;;54.35;31.48;;;;;;;0.39;64.65;97776.97;10297076;28;20025;-61
2022/03/08 17:17:09;;;;;;;48.70;30.90;;;;;;;0.31;64.31;97773.25;10296361;28;20469;-60
2022/03/08 17:22:08;;;;;;;56.92;35.08;;;;;;;0.23;64.75;97785.69;10294981;28;20451;-61
2022/03/08 17:27:09;;;;;;;73.47;42.05;;;;;;;0.22;64.65;97783.97;10296391;28;20116;-61
2022/03/08 17:32:08;;;;;;;71.10;41.70;;;;;;;0.14;63.44;97777.66;10278491;28;20065;-61
2022/03/08 17:37:07;;;;;;;59.15;36.70;;;;;;;-0.14;66.91;97790.97;10295545;28;20362;-61
2022/03/08 17:42:06;;;;;;;51.13;28.77;;;;;;;-0.44;68.07;97785.47;10295630;28;20048;-61
2022/03/08 17:47:06;;;;;;;82.45;46.45;;;;;;;-0.38;68.68;97795.94;10295220;28;20029;-61
2022/03/08 17:52:05;;;;;;;76.00;42.63;;;;;;;-0.63;68.82;97763.41;10294791;28;20049;-61
2022/03/08 17:57:04;;;;;;;66.13;40.40;;;;;;;-0.60;68.61;97753.38;10295312;28;20077;-60
2022/03/08 18:02:04;;;;;;;73.40;45.17;;;;;;;-0.62;69.24;97750.75;10294717;28;20399;-60
2022/03/08 18:07:03;;;;;;;;;;;;;;;-0.33;69.81;97808.88;10266311;28;20077;-60
2022/03/08 18:12:02;;;;;;;77.95;48.28;;;;;;;-0.54;69.40;97802.03;10294876;28;19948;-60
2022/03/08 18:17:01;;;;;;;67.20;38.33;;;;;;;-0.56;68.74;97802.78;10294082;28;20487;-60
2022/03/08 18:22:00;;;;;;;53.97;32.17;;;;;;;-0.59;68.44;97796.75;10292745;28;20073;-60
2022/03/08 18:26:59;;;;;;;50.92;29.02;;;;;;;-0.69;68.13;97796.31;10294254;28;20073;-60
2022/03/08 18:31:59;;;;;;;57.28;34.10;;;;;;;-0.93;67.89;97750.22;10293522;28;20038;-60
2022/03/08 18:36:58;;;;;;;50.40;30.10;;;;;;;-0.74;67.77;97806.28;10292819;28;20110;-60
2022/03/08 18:41:57;;;;;;;62.88;38.22;;;;;;;-0.65;67.60;97809.25;10293151;28;20098;-60
2022/03/08 18:46:56;;;;;;;61.90;35.33;;;;;;;-0.64;67.96;97810.09;10293330;28;20096;-60
2022/03/08 18:51:55;;;;;;;61.83;34.28;;;;;;;-0.66;68.01;97814.25;10292384;28;20037;-60
2022/03/08 18:56:54;;;;;;;67.22;35.97;;;;;;;-0.76;68.15;97814.69;10292602;28;20472;-60
2022/03/08 19:01:53;;;;;;;48.25;26.75;;;;;;;-0.95;67.88;97810.41;10292720;28;20026;-60
2022/03/08 19:06:52;;;;;;;55.10;31.77;;;;;;;-0.86;66.90;97833.75;10292007;28;20496;-60
2022/03/08 19:11:51;;;;;;;68.30;38.22;;;;;;;-0.78;67.28;97834.13;10291875;28;20499;-60
2022/03/08 19:16:50;;;;;;;65.75;34.40;;;;;;;-0.98;66.53;97805.19;10292593;28;20030;-60
2022/03/08 19:21:53;;;;;;;70.30;37.03;;;;;;;-0.83;66.60;97832.22;10290897;28;20050;-60
2022/03/08 19:26:52;;;;;;;61.72;35.72;;;;;;;-0.84;67.38;97830.50;10291459;28;20069;-61
2022/03/08 19:31:51;;;;;;;54.55;31.27;;;;;;;-1.05;67.10;97783.66;10237906;28;20042;-60
2022/03/08 19:36:50;;;;;;;46.33;25.73;;;;;;;-0.76;66.93;97827.41;10286982;28;20105;-60
2022/03/08 19:41:49;;;;;;;50.97;29.20;;;;;;;-0.68;66.16;97826.06;10290594;28;20061;-60
2022/03/08 19:46:48;;;;;;;64.85;37.67;;;;;;;-0.75;66.77;97801.13;10291641;28;20026;-60
2022/03/08 19:51:48;;;;;;;81.53;44.20;;;;;;;-0.45;66.42;97812.63;10290741;28;20080;-60
2022/03/08 19:56:48;;;;;;;82.57;41.60;;;;;;;-0.43;65.85;97802.53;10290565;28;20057;-60
2022/03/08 20:01:48;;;;;;;72.97;41.55;;;;;;;-0.57;65.95;97778.97;10291088;28;20080;-60
2022/03/08 20:06:46;;;;;;;75.18;42.28;;;;;;;-0.28;66.44;97808.25;10290056;28;20057;-60
2022/03/08 20:11:45;;;;;;;80.93;43.53;;;;;;;-0.45;66.45;97771.84;10290552;28;20040;-60
2022/03/08 20:16:44;;;;;;;74.45;40.33;;;;;;;-0.17;66.80;97816.38;10290885;28;20040;-60
2022/03/08 20:21:44;;;;;;;67.97;40.28;;;;;;;-0.16;67.08;97810.44;10289688;28;20085;-60
2022/03/08 20:26:43;;;;;;;55.03;31.80;;;;;;;-0.30;66.09;97803.91;10290073;28;20075;-60
2022/03/08 20:31:42;;;;;;;59.00;31.92;;;;;;;-0.26;65.78;97821.06;10295382;28;20030;-61
2022/03/08 20:36:41;;;;;;;50.00;28.83;;;;;;;-0.75;65.02;97738.28;10293651;28;20076;-61
2022/03/08 20:41:40;;;;;;;60.05;34.78;;;;;;;-0.68;65.23;97754.72;10297531;28;20456;-61
2022/03/08 20:46:39;;;;;;;77.22;41.22;;;;;;;-0.34;64.26;97799.50;10297730;28;20455;-61
2022/03/08 20:51:39;;;;;;;57.47;35.38;;;;;;;-0.34;64.30;97809.69;10297613;28;20030;-61
2022/03/08 20:56:38;;;;;;;69.18;41.25;;;;;;;-0.44;64.78;97796.56;10297933;28;20563;-60
2022/03/08 21:01:37;;;;;;;73.28;41.97;;;;;;;-0.29;65.09;97811.63;10296764;28;20528;-60
2022/03/08 21:06:36;;;;;;;107.03;50.75;;;;;;;-0.37;66.26;97793.47;10294449;28;20166;-60
2022/03/08 21:11:35;;;;;;;90.68;44.88;;;;;;;-0.18;67.07;97815.50;10277600;28;20084;-60
2022/03/08 21:16:34;;;;;;;;;;;;;;;-0.17;67.20;97809.56;10297552;28;20487;-61
2022/03/08 21:21:33;;;;;;;74.43;41.78;;;;;;;-0.16;67.43;97810.44;10295025;28;20421;-60
2022/03/08 21:26:32;;;;;;;80.05;45.33;;;;;;;-0.36;68.66;97804.53;10296937;28;20030;-61
2022/03/08 21:31:31;;;;;;;68.50;40.25;;;;;;;-0.44;69.59;97804.19;10296315;28;20061;-60
2022/03/08 21:36:31;;;;;;;72.45;41.15;;;;;;;-0.47;69.89;97804.06;10295847;28;20088;-60
2022/03/08 21:41:31;;;;;;;66.30;38.47;;;;;;;-0.48;69.98;97809.09;10292563;28;20072;-60
2022/03/08 21:46:29;;;;;;;72.75;40.08;;;;;;;-0.47;70.50;97798.09;10295994;28;20065;-60
2022/03/08 21:51:30;;;;;;;74.47;41.55;;;;;;;-0.57;70.10;97776.44;10296070;28;20029;-60
2022/03/08 21:56:30;;;;;;;64.15;35.65;;;;;;;-0.52;70.31;97795.34;10294956;28;20550;-60
2022/03/08 22:01:29;;;;;;;58.20;31.02;;;;;;;-0.87;70.19;97755.59;10294755;28;20065;-60
2022/03/08 22:06:28;;;;;;;58.40;33.38;;;;;;;-0.72;70.41;97784.31;10295299;28;20061;-60
2022/03/08 22:11:28;;;;;;;57.80;33.22;;;;;;;-1.02;70.18;97755.81;10291667;28;20095;-60
2022/03/08 22:16:27;;;;;;;;;;;;;;;-0.85;70.19;97798.16;10294959;28;20067;-60
2022/03/08 22:21:25;;;;;;;;;;;;;;;-0.93;70.87;97794.41;10294589;28;19917;-61
2022/03/08 22:26:24;;;;;;;;;;;;;;;-0.97;70.33;97787.44;10294563;28;19913;-61
2022/03/08 22:31:23;;;;;;;;;;;;;;;-0.99;70.05;97786.50;10294270;28;19909;-61
2022/03/08 22:36:22;;;;;;;;;;;;;;;-1.06;70.57;97792.13;10294636;28;20409;-61
2022/03/08 22:41:21;;;;;;;;;;;;;;;-1.09;70.05;97786.91;10290298;28;19909;-61
2022/03/08 22:46:20;;;;;;;;;;;;;;;-1.13;70.14;97787.56;10293959;28;20410;-61
2022/03/08 22:56:35;;;;;;;;;;;;;;;-1.16;69.87;97785.75;10293639;28;19959;-61
2022/03/08 23:01:34;;;;;;;;;;;;;;;-1.19;70.12;97785.59;10293112;28;19914;-61
2022/03/08 23:06:33;;;;;;;;;;;;;;;-1.24;69.88;97793.00;10292724;28;19919;-61